sensor_id;sensor_type;location;lat;lon;timestamp;temperature;humidity
43810;DHT22;29440;48.208;11.162;2023-04-21T00:01:15;6.90;99.90
43810;DHT22;29440;48.208;11.162;2023-04-21T00:03:42;6.90;99.90
43810;DHT22;29440;48.208;11.162;2023-04-21T00:06:09;6.90;99.90
43810;DHT22;29440;48.208;11.162;2023-04-21T00:08:35;6.90;99.90
43810;DHT22;29440;48.208;11.162;2023-04-21T00:11:07;6.90;99.90
43810;DHT22;29440;48.208;11.162;2023-04-21T00:16:42;6.90;99.90
43810;DHT22;29440;48.208;11.162;2023-04-21T00:19:07;6.90;99.90
43810;DHT22;29440;48.208;11.162;2023-04-21T00:21:33;6.90;99.90
43810;DHT22;29440;48.208;11.162;2023-04-21T00:23:59;6.90;99.90
43810;DHT22;29440;48.208;11.162;2023-04-21T00:26:25;6.90;99.90
43810;DHT22;29440;48.208;11.162;2023-04-21T00:28:50;6.90;99.90
43810;DHT22;29440;48.208;11.162;2023-04-21T00:31:16;6.90;99.90
43810;DHT22;29440;48.208;11.162;2023-04-21T00:33:42;6.90;99.90
43810;DHT22;29440;48.208;11.162;2023-04-21T00:36:07;6.80;99.90
43810;DHT22;29440;48.208;11.162;2023-04-21T00:38:33;6.90;99.90
43810;DHT22;29440;48.208;11.162;2023-04-21T00:40:58;6.90;99.90
43810;DHT22;29440;48.208;11.162;2023-04-21T00:43:24;6.80;99.90
43810;DHT22;29440;48.208;11.162;2023-04-21T00:45:50;6.80;99.90
43810;DHT22;29440;48.208;11.162;2023-04-21T00:48:16;6.80;99.90
43810;DHT22;29440;48.208;11.162;2023-04-21T00:50:42;6.80;99.90
43810;DHT22;29440;48.208;11.162;2023-04-21T00:53:09;6.80;99.90
43810;DHT22;29440;48.208;11.162;2023-04-21T00:55:35;6.80;99.90
43810;DHT22;29440;48.208;11.162;2023-04-21T00:58:02;6.80;99.90
43810;DHT22;29440;48.208;11.162;2023-04-21T01:00:28;6.80;99.90
43810;DHT22;29440;48.208;11.162;2023-04-21T01:02:54;6.80;99.90
43810;DHT22;29440;48.208;11.162;2023-04-21T01:05:20;6.80;99.90
43810;DHT22;29440;48.208;11.162;2023-04-21T01:07:46;6.80;99.90
43810;DHT22;29440;48.208;11.162;2023-04-21T01:10:12;6.80;99.90
43810;DHT22;29440;48.208;11.162;2023-04-21T01:12:47;6.90;99.90
43810;DHT22;29440;48.208;11.162;2023-04-21T01:15:15;6.90;99.90
43810;DHT22;29440;48.208;11.162;2023-04-21T01:17:41;6.80;99.90
43810;DHT22;29440;48.208;11.162;2023-04-21T01:20:09;6.90;99.90
43810;DHT22;29440;48.208;11.162;2023-04-21T01:22:37;6.80;99.90
43810;DHT22;29440;48.208;11.162;2023-04-21T01:25:03;6.80;99.90
43810;DHT22;29440;48.208;11.162;2023-04-21T01:27:29;6.80;99.90
43810;DHT22;29440;48.208;11.162;2023-04-21T01:29:54;6.80;99.90
43810;DHT22;29440;48.208;11.162;2023-04-21T01:32:23;6.80;99.90
43810;DHT22;29440;48.208;11.162;2023-04-21T01:34:49;6.90;99.90
43810;DHT22;29440;48.208;11.162;2023-04-21T01:37:17;6.90;99.90
43810;DHT22;29440;48.208;11.162;2023-04-21T01:39:45;6.90;99.90
43810;DHT22;29440;48.208;11.162;2023-04-21T01:42:12;6.90;99.90
43810;DHT22;29440;48.208;11.162;2023-04-21T01:44:38;6.90;99.90
43810;DHT22;29440;48.208;11.162;2023-04-21T01:47:04;6.90;99.90
43810;DHT22;29440;48.208;11.162;2023-04-21T01:49:30;6.90;99.90
43810;DHT22;29440;48.208;11.162;2023-04-21T01:51:55;6.90;99.90
43810;DHT22;29440;48.208;11.162;2023-04-21T01:54:21;6.80;99.90
43810;DHT22;29440;48.208;11.162;2023-04-21T01:56:46;6.80;99.90
43810;DHT22;29440;48.208;11.162;2023-04-21T01:59:12;6.80;99.90
43810;DHT22;29440;48.208;11.162;2023-04-21T02:01:37;6.80;99.90
43810;DHT22;29440;48.208;11.162;2023-04-21T02:04:03;6.80;99.90
43810;DHT22;29440;48.208;11.162;2023-04-21T02:06:29;6.80;99.90
43810;DHT22;29440;48.208;11.162;2023-04-21T02:08:56;6.70;99.90
43810;DHT22;29440;48.208;11.162;2023-04-21T02:11:23;6.70;99.90
43810;DHT22;29440;48.208;11.162;2023-04-21T02:13:51;6.70;99.90
43810;DHT22;29440;48.208;11.162;2023-04-21T02:16:16;6.70;99.90
43810;DHT22;29440;48.208;11.162;2023-04-21T02:18:42;6.70;99.90
43810;DHT22;29440;48.208;11.162;2023-04-21T02:21:08;6.70;99.90
43810;DHT22;29440;48.208;11.162;2023-04-21T02:23:34;6.70;99.90
43810;DHT22;29440;48.208;11.162;2023-04-21T02:26:00;6.70;99.90
43810;DHT22;29440;48.208;11.162;2023-04-21T02:28:25;6.70;99.90
43810;DHT22;29440;48.208;11.162;2023-04-21T02:30:51;6.70;99.90
43810;DHT22;29440;48.208;11.162;2023-04-21T02:33:16;6.70;99.90
43810;DHT22;29440;48.208;11.162;2023-04-21T02:35:42;6.70;99.90
43810;DHT22;29440;48.208;11.162;2023-04-21T02:38:07;6.70;99.90
43810;DHT22;29440;48.208;11.162;2023-04-21T02:40:33;6.70;99.90
43810;DHT22;29440;48.208;11.162;2023-04-21T02:42:59;6.70;99.90
43810;DHT22;29440;48.208;11.162;2023-04-21T02:45:24;6.60;99.90
43810;DHT22;29440;48.208;11.162;2023-04-21T02:47:50;6.60;99.90
43810;DHT22;29440;48.208;11.162;2023-04-21T02:50:15;6.50;99.90
43810;DHT22;29440;48.208;11.162;2023-04-21T02:52:41;6.60;99.90
43810;DHT22;29440;48.208;11.162;2023-04-21T02:55:07;6.60;99.90
43810;DHT22;29440;48.208;11.162;2023-04-21T02:57:32;6.60;99.90
43810;DHT22;29440;48.208;11.162;2023-04-21T02:59:58;6.60;99.90
43810;DHT22;29440;48.208;11.162;2023-04-21T03:02:24;6.60;99.90
43810;DHT22;29440;48.208;11.162;2023-04-21T03:04:49;6.60;99.90
43810;DHT22;29440;48.208;11.162;2023-04-21T03:07:15;6.60;99.90
43810;DHT22;29440;48.208;11.162;2023-04-21T03:09:41;6.60;99.90
43810;DHT22;29440;48.208;11.162;2023-04-21T03:12:07;6.60;99.90
43810;DHT22;29440;48.208;11.162;2023-04-21T03:14:32;6.70;99.90
43810;DHT22;29440;48.208;11.162;2023-04-21T03:16:58;6.60;99.90
43810;DHT22;29440;48.208;11.162;2023-04-21T03:19:23;6.70;99.90
43810;DHT22;29440;48.208;11.162;2023-04-21T03:21:49;6.70;99.90
43810;DHT22;29440;48.208;11.162;2023-04-21T03:24:14;6.70;99.90
43810;DHT22;29440;48.208;11.162;2023-04-21T03:26:40;6.70;99.90
43810;DHT22;29440;48.208;11.162;2023-04-21T03:29:06;6.70;99.90
43810;DHT22;29440;48.208;11.162;2023-04-21T03:31:31;6.70;99.90
43810;DHT22;29440;48.208;11.162;2023-04-21T03:33:57;6.70;99.90
43810;DHT22;29440;48.208;11.162;2023-04-21T03:36:23;6.70;99.90
43810;DHT22;29440;48.208;11.162;2023-04-21T03:38:48;6.70;99.90
43810;DHT22;29440;48.208;11.162;2023-04-21T03:41:14;6.70;99.90
43810;DHT22;29440;48.208;11.162;2023-04-21T03:43:40;6.70;99.90
43810;DHT22;29440;48.208;11.162;2023-04-21T03:46:05;6.70;99.90
43810;DHT22;29440;48.208;11.162;2023-04-21T03:48:31;6.60;99.90
43810;DHT22;29440;48.208;11.162;2023-04-21T03:50:56;6.60;99.90
43810;DHT22;29440;48.208;11.162;2023-04-21T03:53:22;6.60;99.90
43810;DHT22;29440;48.208;11.162;2023-04-21T03:55:49;6.60;99.90
43810;DHT22;29440;48.208;11.162;2023-04-21T03:58:15;6.60;99.90
43810;DHT22;29440;48.208;11.162;2023-04-21T04:00:41;6.60;99.90
43810;DHT22;29440;48.208;11.162;2023-04-21T04:03:06;6.60;99.90
43810;DHT22;29440;48.208;11.162;2023-04-21T04:05:34;6.60;99.90
43810;DHT22;29440;48.208;11.162;2023-04-21T04:07:59;6.60;99.90
43810;DHT22;29440;48.208;11.162;2023-04-21T04:10:25;6.60;99.90
43810;DHT22;29440;48.208;11.162;2023-04-21T04:12:50;6.70;99.90
43810;DHT22;29440;48.208;11.162;2023-04-21T04:15:16;6.50;99.90
43810;DHT22;29440;48.208;11.162;2023-04-21T04:17:41;6.60;99.90
43810;DHT22;29440;48.208;11.162;2023-04-21T04:20:07;6.50;99.90
43810;DHT22;29440;48.208;11.162;2023-04-21T04:22:33;6.50;99.90
43810;DHT22;29440;48.208;11.162;2023-04-21T04:24:59;6.60;99.90
43810;DHT22;29440;48.208;11.162;2023-04-21T04:27:26;6.50;99.90
43810;DHT22;29440;48.208;11.162;2023-04-21T04:29:51;6.50;99.90
43810;DHT22;29440;48.208;11.162;2023-04-21T04:32:17;6.60;99.90
43810;DHT22;29440;48.208;11.162;2023-04-21T04:34:43;6.60;99.90
43810;DHT22;29440;48.208;11.162;2023-04-21T04:37:09;6.50;99.90
43810;DHT22;29440;48.208;11.162;2023-04-21T04:39:35;6.50;99.90
43810;DHT22;29440;48.208;11.162;2023-04-21T04:42:01;6.50;99.90
43810;DHT22;29440;48.208;11.162;2023-04-21T04:44:28;6.50;99.90
43810;DHT22;29440;48.208;11.162;2023-04-21T04:46:54;6.50;99.90
43810;DHT22;29440;48.208;11.162;2023-04-21T04:49:20;6.50;99.90
43810;DHT22;29440;48.208;11.162;2023-04-21T04:51:46;6.50;99.90
43810;DHT22;29440;48.208;11.162;2023-04-21T04:54:11;6.50;99.90
43810;DHT22;29440;48.208;11.162;2023-04-21T04:56:37;6.50;99.90
43810;DHT22;29440;48.208;11.162;2023-04-21T04:59:03;6.50;99.90
43810;DHT22;29440;48.208;11.162;2023-04-21T05:01:29;6.50;99.90
43810;DHT22;29440;48.208;11.162;2023-04-21T05:03:55;6.50;99.90
43810;DHT22;29440;48.208;11.162;2023-04-21T05:06:22;6.60;99.90
43810;DHT22;29440;48.208;11.162;2023-04-21T05:08:47;6.60;99.90
43810;DHT22;29440;48.208;11.162;2023-04-21T05:11:13;6.60;99.90
43810;DHT22;29440;48.208;11.162;2023-04-21T05:13:38;6.60;99.90
43810;DHT22;29440;48.208;11.162;2023-04-21T05:16:05;6.60;99.90
43810;DHT22;29440;48.208;11.162;2023-04-21T05:18:30;6.70;99.90
43810;DHT22;29440;48.208;11.162;2023-04-21T05:20:56;6.70;99.90
43810;DHT22;29440;48.208;11.162;2023-04-21T05:23:22;6.70;99.90
43810;DHT22;29440;48.208;11.162;2023-04-21T05:25:48;6.70;99.90
43810;DHT22;29440;48.208;11.162;2023-04-21T05:28:13;6.70;99.90
43810;DHT22;29440;48.208;11.162;2023-04-21T05:30:40;6.70;99.90
43810;DHT22;29440;48.208;11.162;2023-04-21T05:33:05;6.70;99.90
43810;DHT22;29440;48.208;11.162;2023-04-21T05:35:32;6.80;99.90
43810;DHT22;29440;48.208;11.162;2023-04-21T05:37:57;6.80;99.90
43810;DHT22;29440;48.208;11.162;2023-04-21T05:40:23;6.90;99.90
43810;DHT22;29440;48.208;11.162;2023-04-21T05:42:48;6.90;99.90
43810;DHT22;29440;48.208;11.162;2023-04-21T05:45:14;6.90;99.90
43810;DHT22;29440;48.208;11.162;2023-04-21T05:47:40;6.90;99.90
43810;DHT22;29440;48.208;11.162;2023-04-21T05:50:06;6.90;99.90
43810;DHT22;29440;48.208;11.162;2023-04-21T05:52:32;6.90;99.90
43810;DHT22;29440;48.208;11.162;2023-04-21T05:54:59;7.00;99.90
43810;DHT22;29440;48.208;11.162;2023-04-21T05:57:25;7.00;99.90
43810;DHT22;29440;48.208;11.162;2023-04-21T05:59:50;7.10;99.90
43810;DHT22;29440;48.208;11.162;2023-04-21T06:02:16;7.20;99.90
43810;DHT22;29440;48.208;11.162;2023-04-21T06:04:41;7.20;99.90
43810;DHT22;29440;48.208;11.162;2023-04-21T06:07:07;7.30;99.90
43810;DHT22;29440;48.208;11.162;2023-04-21T06:09:34;7.30;99.90
43810;DHT22;29440;48.208;11.162;2023-04-21T06:12:00;7.40;99.90
43810;DHT22;29440;48.208;11.162;2023-04-21T06:14:26;7.50;99.90
43810;DHT22;29440;48.208;11.162;2023-04-21T06:16:52;7.60;99.90
43810;DHT22;29440;48.208;11.162;2023-04-21T06:19:17;7.70;99.90
43810;DHT22;29440;48.208;11.162;2023-04-21T06:21:43;7.80;99.90
43810;DHT22;29440;48.208;11.162;2023-04-21T06:24:08;7.90;99.90
43810;DHT22;29440;48.208;11.162;2023-04-21T06:26:34;8.30;99.90
43810;DHT22;29440;48.208;11.162;2023-04-21T06:28:59;8.80;99.90
43810;DHT22;29440;48.208;11.162;2023-04-21T06:31:25;9.30;99.90
43810;DHT22;29440;48.208;11.162;2023-04-21T06:33:51;9.80;99.90
43810;DHT22;29440;48.208;11.162;2023-04-21T06:36:16;10.10;99.90
43810;DHT22;29440;48.208;11.162;2023-04-21T06:38:42;10.40;99.90
43810;DHT22;29440;48.208;11.162;2023-04-21T06:41:08;10.30;99.90
43810;DHT22;29440;48.208;11.162;2023-04-21T06:43:34;10.10;99.90
43810;DHT22;29440;48.208;11.162;2023-04-21T06:46:05;9.90;99.90
43810;DHT22;29440;48.208;11.162;2023-04-21T06:48:30;9.90;99.90
43810;DHT22;29440;48.208;11.162;2023-04-21T06:50:56;9.80;99.90
43810;DHT22;29440;48.208;11.162;2023-04-21T06:53:23;9.70;99.90
43810;DHT22;29440;48.208;11.162;2023-04-21T06:55:49;9.70;99.90
43810;DHT22;29440;48.208;11.162;2023-04-21T06:58:15;9.60;99.90
43810;DHT22;29440;48.208;11.162;2023-04-21T07:00:41;9.40;99.90
43810;DHT22;29440;48.208;11.162;2023-04-21T07:03:10;9.20;99.90
43810;DHT22;29440;48.208;11.162;2023-04-21T07:05:36;9.20;99.90
43810;DHT22;29440;48.208;11.162;2023-04-21T07:08:02;9.20;99.90
43810;DHT22;29440;48.208;11.162;2023-04-21T07:10:28;9.20;99.90
43810;DHT22;29440;48.208;11.162;2023-04-21T07:12:54;9.20;99.90
43810;DHT22;29440;48.208;11.162;2023-04-21T07:15:20;9.20;99.90
43810;DHT22;29440;48.208;11.162;2023-04-21T07:17:46;9.10;99.90
43810;DHT22;29440;48.208;11.162;2023-04-21T07:20:11;9.20;99.90
43810;DHT22;29440;48.208;11.162;2023-04-21T07:22:37;9.10;99.90
43810;DHT22;29440;48.208;11.162;2023-04-21T07:25:03;9.10;99.90
43810;DHT22;29440;48.208;11.162;2023-04-21T07:27:32;9.20;99.90
43810;DHT22;29440;48.208;11.162;2023-04-21T07:29:58;9.20;99.90
43810;DHT22;29440;48.208;11.162;2023-04-21T07:32:24;9.40;99.90
43810;DHT22;29440;48.208;11.162;2023-04-21T07:34:49;9.50;99.90
43810;DHT22;29440;48.208;11.162;2023-04-21T07:37:15;9.60;99.90
43810;DHT22;29440;48.208;11.162;2023-04-21T07:39:41;9.80;99.90
43810;DHT22;29440;48.208;11.162;2023-04-21T07:42:06;9.80;99.90
43810;DHT22;29440;48.208;11.162;2023-04-21T07:44:33;9.90;99.90
43810;DHT22;29440;48.208;11.162;2023-04-21T07:46:58;10.00;99.90
43810;DHT22;29440;48.208;11.162;2023-04-21T07:49:24;10.00;99.90
43810;DHT22;29440;48.208;11.162;2023-04-21T07:51:50;10.10;99.90
43810;DHT22;29440;48.208;11.162;2023-04-21T07:54:15;10.20;99.90
43810;DHT22;29440;48.208;11.162;2023-04-21T07:56:41;10.20;99.90
43810;DHT22;29440;48.208;11.162;2023-04-21T07:59:06;10.30;99.90
43810;DHT22;29440;48.208;11.162;2023-04-21T08:01:32;10.40;99.90
43810;DHT22;29440;48.208;11.162;2023-04-21T08:03:57;10.40;99.90
43810;DHT22;29440;48.208;11.162;2023-04-21T08:06:23;10.70;99.90
43810;DHT22;29440;48.208;11.162;2023-04-21T08:08:48;10.70;99.90
43810;DHT22;29440;48.208;11.162;2023-04-21T08:11:14;10.80;99.90
43810;DHT22;29440;48.208;11.162;2023-04-21T08:13:40;10.90;99.90
43810;DHT22;29440;48.208;11.162;2023-04-21T08:16:19;10.90;99.90
43810;DHT22;29440;48.208;11.162;2023-04-21T08:18:44;11.10;99.90
43810;DHT22;29440;48.208;11.162;2023-04-21T08:21:10;11.10;99.90
43810;DHT22;29440;48.208;11.162;2023-04-21T08:23:35;11.20;99.90
43810;DHT22;29440;48.208;11.162;2023-04-21T08:26:02;11.20;99.90
43810;DHT22;29440;48.208;11.162;2023-04-21T08:28:27;11.50;99.90
43810;DHT22;29440;48.208;11.162;2023-04-21T08:30:53;11.70;99.90
43810;DHT22;29440;48.208;11.162;2023-04-21T08:33:18;11.90;99.90
43810;DHT22;29440;48.208;11.162;2023-04-21T08:35:44;12.00;99.90
43810;DHT22;29440;48.208;11.162;2023-04-21T08:38:10;12.20;99.90
43810;DHT22;29440;48.208;11.162;2023-04-21T08:40:37;12.30;99.90
43810;DHT22;29440;48.208;11.162;2023-04-21T08:43:07;12.30;99.90
43810;DHT22;29440;48.208;11.162;2023-04-21T08:45:33;12.30;99.90
43810;DHT22;29440;48.208;11.162;2023-04-21T08:48:01;12.30;99.90
43810;DHT22;29440;48.208;11.162;2023-04-21T08:50:29;12.20;99.90
43810;DHT22;29440;48.208;11.162;2023-04-21T08:53:00;12.20;99.90
43810;DHT22;29440;48.208;11.162;2023-04-21T08:55:29;12.10;99.90
43810;DHT22;29440;48.208;11.162;2023-04-21T08:57:54;12.10;99.90
43810;DHT22;29440;48.208;11.162;2023-04-21T09:00:20;12.10;99.90
43810;DHT22;29440;48.208;11.162;2023-04-21T09:02:59;12.10;99.90
43810;DHT22;29440;48.208;11.162;2023-04-21T09:05:26;12.00;99.90
43810;DHT22;29440;48.208;11.162;2023-04-21T09:08:05;12.10;99.90
43810;DHT22;29440;48.208;11.162;2023-04-21T09:10:32;12.20;99.90
43810;DHT22;29440;48.208;11.162;2023-04-21T09:13:05;12.30;99.90
43810;DHT22;29440;48.208;11.162;2023-04-21T09:15:40;12.40;99.90
43810;DHT22;29440;48.208;11.162;2023-04-21T09:18:14;12.50;99.90
43810;DHT22;29440;48.208;11.162;2023-04-21T09:20:41;12.50;99.90
43810;DHT22;29440;48.208;11.162;2023-04-21T09:23:09;12.30;99.90
43810;DHT22;29440;48.208;11.162;2023-04-21T09:25:37;12.30;99.90
43810;DHT22;29440;48.208;11.162;2023-04-21T09:28:10;12.20;99.90
43810;DHT22;29440;48.208;11.162;2023-04-21T09:30:37;12.20;99.90
43810;DHT22;29440;48.208;11.162;2023-04-21T09:33:03;12.20;99.90
43810;DHT22;29440;48.208;11.162;2023-04-21T09:35:36;12.20;99.90
43810;DHT22;29440;48.208;11.162;2023-04-21T09:38:02;12.20;99.90
43810;DHT22;29440;48.208;11.162;2023-04-21T09:40:31;12.10;99.90
43810;DHT22;29440;48.208;11.162;2023-04-21T09:42:58;12.20;99.90
43810;DHT22;29440;48.208;11.162;2023-04-21T09:45:26;12.20;99.90
43810;DHT22;29440;48.208;11.162;2023-04-21T09:47:55;12.20;99.90
43810;DHT22;29440;48.208;11.162;2023-04-21T09:50:22;12.30;99.90
43810;DHT22;29440;48.208;11.162;2023-04-21T09:52:50;12.30;99.90
43810;DHT22;29440;48.208;11.162;2023-04-21T09:55:18;12.30;99.90
43810;DHT22;29440;48.208;11.162;2023-04-21T09:57:46;12.20;99.90
43810;DHT22;29440;48.208;11.162;2023-04-21T10:00:16;12.30;99.90
43810;DHT22;29440;48.208;11.162;2023-04-21T10:02:43;12.30;99.90
43810;DHT22;29440;48.208;11.162;2023-04-21T10:05:09;12.40;99.90
43810;DHT22;29440;48.208;11.162;2023-04-21T10:07:35;12.50;99.90
43810;DHT22;29440;48.208;11.162;2023-04-21T10:10:01;12.60;99.90
43810;DHT22;29440;48.208;11.162;2023-04-21T10:12:27;12.70;99.90
43810;DHT22;29440;48.208;11.162;2023-04-21T10:14:54;12.80;99.90
43810;DHT22;29440;48.208;11.162;2023-04-21T10:17:24;12.90;99.90
43810;DHT22;29440;48.208;11.162;2023-04-21T10:19:55;13.00;99.90
43810;DHT22;29440;48.208;11.162;2023-04-21T10:22:32;13.10;99.90
43810;DHT22;29440;48.208;11.162;2023-04-21T10:24:59;13.10;99.90
43810;DHT22;29440;48.208;11.162;2023-04-21T10:27:40;13.00;99.90
43810;DHT22;29440;48.208;11.162;2023-04-21T10:30:23;13.00;99.90
43810;DHT22;29440;48.208;11.162;2023-04-21T10:33:08;13.10;99.90
43810;DHT22;29440;48.208;11.162;2023-04-21T10:35:59;13.10;99.90
43810;DHT22;29440;48.208;11.162;2023-04-21T10:38:39;13.10;99.90
43810;DHT22;29440;48.208;11.162;2023-04-21T10:41:31;13.10;99.90
43810;DHT22;29440;48.208;11.162;2023-04-21T10:43:57;13.20;99.90
43810;DHT22;29440;48.208;11.162;2023-04-21T10:46:43;13.20;99.90
43810;DHT22;29440;48.208;11.162;2023-04-21T10:49:11;13.40;99.90
43810;DHT22;29440;48.208;11.162;2023-04-21T10:54:26;13.60;99.90
43810;DHT22;29440;48.208;11.162;2023-04-21T10:56:55;13.70;99.90
43810;DHT22;29440;48.208;11.162;2023-04-21T10:59:22;13.70;99.90
43810;DHT22;29440;48.208;11.162;2023-04-21T11:01:48;13.80;99.90
43810;DHT22;29440;48.208;11.162;2023-04-21T11:04:18;13.90;99.90
43810;DHT22;29440;48.208;11.162;2023-04-21T11:09:29;14.10;99.90
43810;DHT22;29440;48.208;11.162;2023-04-21T11:12:00;14.30;99.90
43810;DHT22;29440;48.208;11.162;2023-04-21T11:14:27;14.50;99.90
43810;DHT22;29440;48.208;11.162;2023-04-21T11:16:52;14.70;99.90
43810;DHT22;29440;48.208;11.162;2023-04-21T11:19:18;14.90;99.90
43810;DHT22;29440;48.208;11.162;2023-04-21T11:21:48;15.00;99.90
43810;DHT22;29440;48.208;11.162;2023-04-21T11:24:14;15.20;99.90
43810;DHT22;29440;48.208;11.162;2023-04-21T11:26:40;15.30;99.90
43810;DHT22;29440;48.208;11.162;2023-04-21T11:29:08;15.40;99.90
43810;DHT22;29440;48.208;11.162;2023-04-21T11:31:39;15.40;99.90
43810;DHT22;29440;48.208;11.162;2023-04-21T11:34:06;15.40;99.90
43810;DHT22;29440;48.208;11.162;2023-04-21T11:36:33;15.50;99.90
43810;DHT22;29440;48.208;11.162;2023-04-21T11:38:58;15.60;99.90
43810;DHT22;29440;48.208;11.162;2023-04-21T11:41:27;15.60;99.90
43810;DHT22;29440;48.208;11.162;2023-04-21T11:43:53;15.60;99.90
43810;DHT22;29440;48.208;11.162;2023-04-21T11:46:25;15.70;99.90
43810;DHT22;29440;48.208;11.162;2023-04-21T11:51:39;15.80;99.90
43810;DHT22;29440;48.208;11.162;2023-04-21T11:54:06;15.90;99.90
43810;DHT22;29440;48.208;11.162;2023-04-21T11:56:36;15.90;99.90
43810;DHT22;29440;48.208;11.162;2023-04-21T11:59:21;16.00;99.90
43810;DHT22;29440;48.208;11.162;2023-04-21T12:01:51;16.10;99.90
43810;DHT22;29440;48.208;11.162;2023-04-21T12:04:22;16.10;99.90
43810;DHT22;29440;48.208;11.162;2023-04-21T12:07:00;16.20;99.90
43810;DHT22;29440;48.208;11.162;2023-04-21T12:09:26;16.40;99.90
43810;DHT22;29440;48.208;11.162;2023-04-21T12:11:55;16.50;99.90
43810;DHT22;29440;48.208;11.162;2023-04-21T12:14:23;16.50;99.90
43810;DHT22;29440;48.208;11.162;2023-04-21T12:16:56;16.60;99.90
43810;DHT22;29440;48.208;11.162;2023-04-21T12:19:39;16.70;99.90
43810;DHT22;29440;48.208;11.162;2023-04-21T12:22:11;16.80;99.90
43810;DHT22;29440;48.208;11.162;2023-04-21T12:24:38;16.80;99.90
43810;DHT22;29440;48.208;11.162;2023-04-21T12:27:05;16.90;99.90
43810;DHT22;29440;48.208;11.162;2023-04-21T12:29:31;16.90;99.90
43810;DHT22;29440;48.208;11.162;2023-04-21T12:31:59;17.00;99.90
43810;DHT22;29440;48.208;11.162;2023-04-21T12:34:24;17.00;99.90
43810;DHT22;29440;48.208;11.162;2023-04-21T12:36:50;17.10;99.90
43810;DHT22;29440;48.208;11.162;2023-04-21T12:39:15;17.20;99.90
43810;DHT22;29440;48.208;11.162;2023-04-21T12:41:43;17.30;99.90
43810;DHT22;29440;48.208;11.162;2023-04-21T12:44:08;17.40;99.90
43810;DHT22;29440;48.208;11.162;2023-04-21T12:46:34;17.50;99.90
43810;DHT22;29440;48.208;11.162;2023-04-21T12:48:59;17.60;99.90
43810;DHT22;29440;48.208;11.162;2023-04-21T12:51:25;17.60;99.90
43810;DHT22;29440;48.208;11.162;2023-04-21T12:53:50;17.60;99.90
43810;DHT22;29440;48.208;11.162;2023-04-21T12:56:17;17.70;99.90
43810;DHT22;29440;48.208;11.162;2023-04-21T12:58:42;17.60;99.90
43810;DHT22;29440;48.208;11.162;2023-04-21T13:01:08;17.70;99.90
43810;DHT22;29440;48.208;11.162;2023-04-21T13:03:33;17.70;99.90
43810;DHT22;29440;48.208;11.162;2023-04-21T13:05:59;17.60;99.90
43810;DHT22;29440;48.208;11.162;2023-04-21T13:08:24;17.60;99.90
43810;DHT22;29440;48.208;11.162;2023-04-21T13:10:50;17.60;99.90
43810;DHT22;29440;48.208;11.162;2023-04-21T13:13:16;17.70;99.90
43810;DHT22;29440;48.208;11.162;2023-04-21T13:15:41;17.70;99.90
43810;DHT22;29440;48.208;11.162;2023-04-21T13:18:07;17.70;99.90
43810;DHT22;29440;48.208;11.162;2023-04-21T13:20:32;17.80;99.90
43810;DHT22;29440;48.208;11.162;2023-04-21T13:22:58;17.90;99.90
43810;DHT22;29440;48.208;11.162;2023-04-21T13:25:23;17.80;99.90
43810;DHT22;29440;48.208;11.162;2023-04-21T13:27:49;17.80;99.90
43810;DHT22;29440;48.208;11.162;2023-04-21T13:30:14;17.80;99.90
43810;DHT22;29440;48.208;11.162;2023-04-21T13:32:41;17.90;99.90
43810;DHT22;29440;48.208;11.162;2023-04-21T13:35:07;17.90;99.90
43810;DHT22;29440;48.208;11.162;2023-04-21T13:37:38;17.90;99.90
43810;DHT22;29440;48.208;11.162;2023-04-21T13:40:05;18.00;99.90
43810;DHT22;29440;48.208;11.162;2023-04-21T13:42:33;18.00;99.90
43810;DHT22;29440;48.208;11.162;2023-04-21T13:44:59;17.90;99.90
43810;DHT22;29440;48.208;11.162;2023-04-21T13:47:31;18.10;99.90
43810;DHT22;29440;48.208;11.162;2023-04-21T13:49:57;18.10;99.90
43810;DHT22;29440;48.208;11.162;2023-04-21T13:52:23;18.10;99.90
43810;DHT22;29440;48.208;11.162;2023-04-21T13:54:50;18.10;99.90
43810;DHT22;29440;48.208;11.162;2023-04-21T13:57:16;18.20;99.90
43810;DHT22;29440;48.208;11.162;2023-04-21T13:59:42;18.30;99.90
43810;DHT22;29440;48.208;11.162;2023-04-21T14:02:08;18.20;99.90
43810;DHT22;29440;48.208;11.162;2023-04-21T14:04:34;18.20;99.90
43810;DHT22;29440;48.208;11.162;2023-04-21T14:07:01;18.30;99.90
43810;DHT22;29440;48.208;11.162;2023-04-21T14:09:27;18.20;99.90
43810;DHT22;29440;48.208;11.162;2023-04-21T14:11:53;18.20;99.90
43810;DHT22;29440;48.208;11.162;2023-04-21T14:14:19;18.20;99.90
43810;DHT22;29440;48.208;11.162;2023-04-21T14:16:45;18.20;99.90
43810;DHT22;29440;48.208;11.162;2023-04-21T14:19:15;18.30;99.90
43810;DHT22;29440;48.208;11.162;2023-04-21T14:21:41;18.40;99.90
43810;DHT22;29440;48.208;11.162;2023-04-21T14:24:07;18.40;99.90
43810;DHT22;29440;48.208;11.162;2023-04-21T14:26:33;18.40;99.90
43810;DHT22;29440;48.208;11.162;2023-04-21T14:28:59;18.60;99.90
43810;DHT22;29440;48.208;11.162;2023-04-21T14:31:28;18.50;99.90
43810;DHT22;29440;48.208;11.162;2023-04-21T14:33:54;18.50;99.90
43810;DHT22;29440;48.208;11.162;2023-04-21T14:36:21;18.50;99.90
43810;DHT22;29440;48.208;11.162;2023-04-21T14:38:48;18.50;99.90
43810;DHT22;29440;48.208;11.162;2023-04-21T14:41:14;18.60;99.90
43810;DHT22;29440;48.208;11.162;2023-04-21T14:43:39;18.70;99.90
43810;DHT22;29440;48.208;11.162;2023-04-21T14:46:05;18.70;99.90
43810;DHT22;29440;48.208;11.162;2023-04-21T14:48:32;18.70;99.90
43810;DHT22;29440;48.208;11.162;2023-04-21T14:50:58;18.70;99.90
43810;DHT22;29440;48.208;11.162;2023-04-21T14:53:24;18.60;99.90
43810;DHT22;29440;48.208;11.162;2023-04-21T14:55:50;18.80;99.90
43810;DHT22;29440;48.208;11.162;2023-04-21T14:58:15;18.80;99.90
43810;DHT22;29440;48.208;11.162;2023-04-21T15:00:41;18.80;99.90
43810;DHT22;29440;48.208;11.162;2023-04-21T15:03:07;18.90;99.90
43810;DHT22;29440;48.208;11.162;2023-04-21T15:05:32;18.90;99.90
43810;DHT22;29440;48.208;11.162;2023-04-21T15:08:00;18.90;99.90
43810;DHT22;29440;48.208;11.162;2023-04-21T15:10:25;18.80;99.90
43810;DHT22;29440;48.208;11.162;2023-04-21T15:12:51;18.90;99.90
43810;DHT22;29440;48.208;11.162;2023-04-21T15:15:16;18.90;99.90
43810;DHT22;29440;48.208;11.162;2023-04-21T15:17:43;19.00;99.90
43810;DHT22;29440;48.208;11.162;2023-04-21T15:20:09;19.20;99.90
43810;DHT22;29440;48.208;11.162;2023-04-21T15:22:36;19.10;99.90
43810;DHT22;29440;48.208;11.162;2023-04-21T15:25:02;19.10;99.90
43810;DHT22;29440;48.208;11.162;2023-04-21T15:27:27;19.10;99.90
43810;DHT22;29440;48.208;11.162;2023-04-21T15:29:54;19.10;99.90
43810;DHT22;29440;48.208;11.162;2023-04-21T15:32:20;19.20;99.90